sensor_id;sensor_type;location;lat;lon;timestamp;temperature;humidity
20512;DHT22;10414;52.074;5.126;2022-12-29T00:00:59;11.60;99.90
20512;DHT22;10414;52.074;5.126;2022-12-29T00:03:32;11.70;99.90
20512;DHT22;10414;52.074;5.126;2022-12-29T00:05:59;11.70;99.90
20512;DHT22;10414;52.074;5.126;2022-12-29T00:08:31;11.70;99.90
20512;DHT22;10414;52.074;5.126;2022-12-29T00:11:06;11.70;99.90
20512;DHT22;10414;52.074;5.126;2022-12-29T00:13:33;11.70;99.90
20512;DHT22;10414;52.074;5.126;2022-12-29T00:16:17;11.80;99.90
20512;DHT22;10414;52.074;5.126;2022-12-29T00:18:48;11.80;99.90
20512;DHT22;10414;52.074;5.126;2022-12-29T00:21:17;11.90;99.90
20512;DHT22;10414;52.074;5.126;2022-12-29T00:24:02;11.80;99.90
20512;DHT22;10414;52.074;5.126;2022-12-29T00:26:49;11.80;99.90
20512;DHT22;10414;52.074;5.126;2022-12-29T00:29:37;11.90;99.90
20512;DHT22;10414;52.074;5.126;2022-12-29T00:32:21;11.90;99.90
20512;DHT22;10414;52.074;5.126;2022-12-29T00:35:11;11.90;99.90
20512;DHT22;10414;52.074;5.126;2022-12-29T00:37:41;12.00;99.90
20512;DHT22;10414;52.074;5.126;2022-12-29T00:40:26;11.90;99.90
20512;DHT22;10414;52.074;5.126;2022-12-29T00:43:12;11.90;99.90
20512;DHT22;10414;52.074;5.126;2022-12-29T00:46:06;11.90;99.90
20512;DHT22;10414;52.074;5.126;2022-12-29T00:48:33;11.90;99.90
20512;DHT22;10414;52.074;5.126;2022-12-29T00:51:27;11.90;99.90
20512;DHT22;10414;52.074;5.126;2022-12-29T00:53:53;11.90;99.90
20512;DHT22;10414;52.074;5.126;2022-12-29T00:56:20;11.90;99.90
20512;DHT22;10414;52.074;5.126;2022-12-29T00:58:48;12.00;99.90
20512;DHT22;10414;52.074;5.126;2022-12-29T01:01:18;12.00;99.90
20512;DHT22;10414;52.074;5.126;2022-12-29T01:03:45;12.00;99.90
20512;DHT22;10414;52.074;5.126;2022-12-29T01:06:12;11.90;99.90
20512;DHT22;10414;52.074;5.126;2022-12-29T01:08:40;12.00;99.90
20512;DHT22;10414;52.074;5.126;2022-12-29T01:11:09;11.90;99.90
20512;DHT22;10414;52.074;5.126;2022-12-29T01:13:36;11.90;99.90
20512;DHT22;10414;52.074;5.126;2022-12-29T01:16:04;11.60;99.90
20512;DHT22;10414;52.074;5.126;2022-12-29T01:18:33;11.50;99.90
20512;DHT22;10414;52.074;5.126;2022-12-29T01:21:03;11.40;99.90
20512;DHT22;10414;52.074;5.126;2022-12-29T01:23:32;11.20;99.90
20512;DHT22;10414;52.074;5.126;2022-12-29T01:26:10;11.20;99.90
20512;DHT22;10414;52.074;5.126;2022-12-29T01:28:37;11.10;99.90
20512;DHT22;10414;52.074;5.126;2022-12-29T01:31:04;11.10;99.90
20512;DHT22;10414;52.074;5.126;2022-12-29T01:33:34;11.00;99.90
20512;DHT22;10414;52.074;5.126;2022-12-29T01:36:01;11.00;99.90
20512;DHT22;10414;52.074;5.126;2022-12-29T01:38:28;11.00;99.90
20512;DHT22;10414;52.074;5.126;2022-12-29T01:40:55;11.10;99.90
20512;DHT22;10414;52.074;5.126;2022-12-29T01:43:42;11.00;99.90
20512;DHT22;10414;52.074;5.126;2022-12-29T01:46:21;11.00;99.90
20512;DHT22;10414;52.074;5.126;2022-12-29T01:48:52;11.00;99.90
20512;DHT22;10414;52.074;5.126;2022-12-29T01:51:22;11.00;99.90
20512;DHT22;10414;52.074;5.126;2022-12-29T01:53:50;11.00;99.90
20512;DHT22;10414;52.074;5.126;2022-12-29T01:56:18;11.10;99.90
20512;DHT22;10414;52.074;5.126;2022-12-29T01:58:50;11.10;99.90
20512;DHT22;10414;52.074;5.126;2022-12-29T02:01:21;11.20;99.90
20512;DHT22;10414;52.074;5.126;2022-12-29T02:03:49;11.20;99.90
20512;DHT22;10414;52.074;5.126;2022-12-29T02:06:21;11.20;99.90
20512;DHT22;10414;52.074;5.126;2022-12-29T02:08:50;11.20;99.90
20512;DHT22;10414;52.074;5.126;2022-12-29T02:11:17;11.30;99.90
20512;DHT22;10414;52.074;5.126;2022-12-29T02:13:48;11.30;99.90
20512;DHT22;10414;52.074;5.126;2022-12-29T02:16:30;11.30;99.90
20512;DHT22;10414;52.074;5.126;2022-12-29T02:19:15;11.30;99.90
20512;DHT22;10414;52.074;5.126;2022-12-29T02:22:02;11.30;99.90
20512;DHT22;10414;52.074;5.126;2022-12-29T02:24:55;11.30;99.90
20512;DHT22;10414;52.074;5.126;2022-12-29T02:27:40;11.30;99.90
20512;DHT22;10414;52.074;5.126;2022-12-29T02:30:29;11.30;99.90
20512;DHT22;10414;52.074;5.126;2022-12-29T02:33:00;11.30;99.90
20512;DHT22;10414;52.074;5.126;2022-12-29T02:35:44;11.30;99.90
20512;DHT22;10414;52.074;5.126;2022-12-29T02:38:23;11.30;99.90
20512;DHT22;10414;52.074;5.126;2022-12-29T02:40:55;11.40;99.90
20512;DHT22;10414;52.074;5.126;2022-12-29T02:43:26;11.40;99.90
20512;DHT22;10414;52.074;5.126;2022-12-29T02:46:03;11.40;99.90
20512;DHT22;10414;52.074;5.126;2022-12-29T02:48:32;11.40;99.90
20512;DHT22;10414;52.074;5.126;2022-12-29T02:51:09;11.40;99.90
20512;DHT22;10414;52.074;5.126;2022-12-29T02:53:37;11.40;99.90
20512;DHT22;10414;52.074;5.126;2022-12-29T02:56:21;11.40;99.90
20512;DHT22;10414;52.074;5.126;2022-12-29T02:58:48;11.40;99.90
20512;DHT22;10414;52.074;5.126;2022-12-29T03:01:23;11.40;99.90
20512;DHT22;10414;52.074;5.126;2022-12-29T03:04:06;11.40;99.90
20512;DHT22;10414;52.074;5.126;2022-12-29T03:06:46;11.30;99.90
20512;DHT22;10414;52.074;5.126;2022-12-29T03:09:21;11.20;99.90
20512;DHT22;10414;52.074;5.126;2022-12-29T03:11:58;11.20;99.90
20512;DHT22;10414;52.074;5.126;2022-12-29T03:14:47;11.20;99.90
20512;DHT22;10414;52.074;5.126;2022-12-29T03:17:40;11.20;99.90
20512;DHT22;10414;52.074;5.126;2022-12-29T03:20:14;11.20;99.90
20512;DHT22;10414;52.074;5.126;2022-12-29T03:22:47;11.20;99.90
20512;DHT22;10414;52.074;5.126;2022-12-29T03:25:22;11.10;99.90
20512;DHT22;10414;52.074;5.126;2022-12-29T03:27:54;11.10;99.90
20512;DHT22;10414;52.074;5.126;2022-12-29T03:30:23;11.00;99.90
20512;DHT22;10414;52.074;5.126;2022-12-29T03:32:54;11.10;99.90
20512;DHT22;10414;52.074;5.126;2022-12-29T03:35:26;11.10;99.90
20512;DHT22;10414;52.074;5.126;2022-12-29T03:37:58;11.10;99.90
20512;DHT22;10414;52.074;5.126;2022-12-29T03:40:27;11.00;99.90
20512;DHT22;10414;52.074;5.126;2022-12-29T03:42:58;11.00;99.90
20512;DHT22;10414;52.074;5.126;2022-12-29T03:45:27;10.90;99.90
20512;DHT22;10414;52.074;5.126;2022-12-29T03:47:55;10.80;99.90
20512;DHT22;10414;52.074;5.126;2022-12-29T03:50:22;10.80;99.90
20512;DHT22;10414;52.074;5.126;2022-12-29T03:52:49;10.70;99.90
20512;DHT22;10414;52.074;5.126;2022-12-29T03:55:18;10.60;99.90
20512;DHT22;10414;52.074;5.126;2022-12-29T03:57:49;10.60;99.90
20512;DHT22;10414;52.074;5.126;2022-12-29T04:00:16;10.60;99.90
20512;DHT22;10414;52.074;5.126;2022-12-29T04:02:43;10.50;99.90
20512;DHT22;10414;52.074;5.126;2022-12-29T04:05:11;10.50;99.90
20512;DHT22;10414;52.074;5.126;2022-12-29T04:07:38;10.50;99.90
20512;DHT22;10414;52.074;5.126;2022-12-29T04:10:05;10.50;99.90
20512;DHT22;10414;52.074;5.126;2022-12-29T04:12:32;10.50;99.90
20512;DHT22;10414;52.074;5.126;2022-12-29T04:14:59;10.60;99.90
20512;DHT22;10414;52.074;5.126;2022-12-29T04:17:26;10.60;99.90
20512;DHT22;10414;52.074;5.126;2022-12-29T04:19:56;10.60;99.90
20512;DHT22;10414;52.074;5.126;2022-12-29T04:22:44;10.60;99.90
20512;DHT22;10414;52.074;5.126;2022-12-29T04:25:10;10.70;99.90
20512;DHT22;10414;52.074;5.126;2022-12-29T04:27:37;10.80;99.90
20512;DHT22;10414;52.074;5.126;2022-12-29T04:30:05;10.80;99.90
20512;DHT22;10414;52.074;5.126;2022-12-29T04:32:32;10.80;99.90
20512;DHT22;10414;52.074;5.126;2022-12-29T04:35:00;10.80;99.90
20512;DHT22;10414;52.074;5.126;2022-12-29T04:37:27;10.90;99.90
20512;DHT22;10414;52.074;5.126;2022-12-29T04:39:58;10.90;99.90
20512;DHT22;10414;52.074;5.126;2022-12-29T04:42:25;10.90;99.90
20512;DHT22;10414;52.074;5.126;2022-12-29T04:44:52;10.90;99.90
20512;DHT22;10414;52.074;5.126;2022-12-29T04:47:18;10.80;99.90
20512;DHT22;10414;52.074;5.126;2022-12-29T04:49:45;10.70;99.90
20512;DHT22;10414;52.074;5.126;2022-12-29T04:52:12;10.60;99.90
20512;DHT22;10414;52.074;5.126;2022-12-29T04:54:44;10.60;99.90
20512;DHT22;10414;52.074;5.126;2022-12-29T04:57:12;10.50;99.90
20512;DHT22;10414;52.074;5.126;2022-12-29T04:59:41;10.60;99.90
20512;DHT22;10414;52.074;5.126;2022-12-29T05:02:10;10.50;99.90
20512;DHT22;10414;52.074;5.126;2022-12-29T05:04:36;10.50;99.90
20512;DHT22;10414;52.074;5.126;2022-12-29T05:07:06;10.60;99.90
20512;DHT22;10414;52.074;5.126;2022-12-29T05:09:35;10.50;99.90
20512;DHT22;10414;52.074;5.126;2022-12-29T05:12:02;10.60;99.90
20512;DHT22;10414;52.074;5.126;2022-12-29T05:14:33;10.60;99.90
20512;DHT22;10414;52.074;5.126;2022-12-29T05:17:02;10.60;99.90
20512;DHT22;10414;52.074;5.126;2022-12-29T05:19:33;10.60;99.90
20512;DHT22;10414;52.074;5.126;2022-12-29T05:22:00;10.70;99.90
20512;DHT22;10414;52.074;5.126;2022-12-29T05:24:28;10.80;99.90
20512;DHT22;10414;52.074;5.126;2022-12-29T05:26:58;10.70;99.90
20512;DHT22;10414;52.074;5.126;2022-12-29T05:29:28;10.70;99.90
20512;DHT22;10414;52.074;5.126;2022-12-29T05:31:56;10.70;99.90
20512;DHT22;10414;52.074;5.126;2022-12-29T05:34:26;10.70;99.90
20512;DHT22;10414;52.074;5.126;2022-12-29T05:36:53;10.70;99.90
20512;DHT22;10414;52.074;5.126;2022-12-29T05:39:20;10.60;99.90
20512;DHT22;10414;52.074;5.126;2022-12-29T05:41:49;10.60;99.90
20512;DHT22;10414;52.074;5.126;2022-12-29T05:44:21;10.70;99.90
20512;DHT22;10414;52.074;5.126;2022-12-29T05:46:47;10.60;99.90
20512;DHT22;10414;52.074;5.126;2022-12-29T05:49:16;10.70;99.90
20512;DHT22;10414;52.074;5.126;2022-12-29T05:51:43;10.70;99.90
20512;DHT22;10414;52.074;5.126;2022-12-29T05:54:09;10.70;99.90
20512;DHT22;10414;52.074;5.126;2022-12-29T05:56:36;10.70;99.90
20512;DHT22;10414;52.074;5.126;2022-12-29T05:59:03;10.70;99.90
20512;DHT22;10414;52.074;5.126;2022-12-29T06:01:35;10.60;99.90
20512;DHT22;10414;52.074;5.126;2022-12-29T06:04:01;10.50;99.90
20512;DHT22;10414;52.074;5.126;2022-12-29T06:06:30;10.40;99.90
20512;DHT22;10414;52.074;5.126;2022-12-29T06:08:57;10.40;99.90
20512;DHT22;10414;52.074;5.126;2022-12-29T06:11:23;10.40;99.90
20512;DHT22;10414;52.074;5.126;2022-12-29T06:13:53;10.40;99.90
20512;DHT22;10414;52.074;5.126;2022-12-29T06:16:20;10.40;99.90
20512;DHT22;10414;52.074;5.126;2022-12-29T06:18:47;10.40;99.90
20512;DHT22;10414;52.074;5.126;2022-12-29T06:21:14;10.40;99.90
20512;DHT22;10414;52.074;5.126;2022-12-29T06:23:44;10.30;99.90
20512;DHT22;10414;52.074;5.126;2022-12-29T06:26:11;10.30;99.90
20512;DHT22;10414;52.074;5.126;2022-12-29T06:28:38;10.30;99.90
20512;DHT22;10414;52.074;5.126;2022-12-29T06:31:11;10.30;99.90
20512;DHT22;10414;52.074;5.126;2022-12-29T06:33:53;10.10;99.90
20512;DHT22;10414;52.074;5.126;2022-12-29T06:36:20;10.20;99.90
20512;DHT22;10414;52.074;5.126;2022-12-29T06:38:48;10.20;99.90
20512;DHT22;10414;52.074;5.126;2022-12-29T06:41:17;10.20;99.90
20512;DHT22;10414;52.074;5.126;2022-12-29T06:43:44;10.30;99.90
20512;DHT22;10414;52.074;5.126;2022-12-29T06:46:11;10.20;99.90
20512;DHT22;10414;52.074;5.126;2022-12-29T06:48:40;10.30;99.90
20512;DHT22;10414;52.074;5.126;2022-12-29T06:51:08;10.40;99.90
20512;DHT22;10414;52.074;5.126;2022-12-29T06:53:35;10.40;99.90
20512;DHT22;10414;52.074;5.126;2022-12-29T06:56:04;10.40;99.90
20512;DHT22;10414;52.074;5.126;2022-12-29T06:58:31;10.50;99.90
20512;DHT22;10414;52.074;5.126;2022-12-29T07:01:00;10.30;99.90
20512;DHT22;10414;52.074;5.126;2022-12-29T07:03:27;10.10;99.90
20512;DHT22;10414;52.074;5.126;2022-12-29T07:05:56;9.90;99.90
20512;DHT22;10414;52.074;5.126;2022-12-29T07:08:26;9.80;99.90
20512;DHT22;10414;52.074;5.126;2022-12-29T07:10:56;9.70;99.90
20512;DHT22;10414;52.074;5.126;2022-12-29T07:13:24;9.60;99.90
20512;DHT22;10414;52.074;5.126;2022-12-29T07:15:51;9.40;99.90
20512;DHT22;10414;52.074;5.126;2022-12-29T07:18:17;9.40;99.90
20512;DHT22;10414;52.074;5.126;2022-12-29T07:20:47;9.40;99.90
20512;DHT22;10414;52.074;5.126;2022-12-29T07:23:19;9.30;99.90
20512;DHT22;10414;52.074;5.126;2022-12-29T07:25:46;9.30;99.90
20512;DHT22;10414;52.074;5.126;2022-12-29T07:28:12;9.20;99.90
20512;DHT22;10414;52.074;5.126;2022-12-29T07:30:41;9.20;99.90
20512;DHT22;10414;52.074;5.126;2022-12-29T07:33:07;9.30;99.90
20512;DHT22;10414;52.074;5.126;2022-12-29T07:35:37;9.40;99.90
20512;DHT22;10414;52.074;5.126;2022-12-29T07:38:04;9.50;99.90
20512;DHT22;10414;52.074;5.126;2022-12-29T07:40:33;9.50;99.90
20512;DHT22;10414;52.074;5.126;2022-12-29T07:43:02;9.50;99.90
20512;DHT22;10414;52.074;5.126;2022-12-29T07:45:29;9.60;99.90
20512;DHT22;10414;52.074;5.126;2022-12-29T07:47:59;9.70;99.90
20512;DHT22;10414;52.074;5.126;2022-12-29T07:50:31;9.80;99.90
20512;DHT22;10414;52.074;5.126;2022-12-29T07:53:00;9.90;99.90
20512;DHT22;10414;52.074;5.126;2022-12-29T07:55:27;9.90;99.90
20512;DHT22;10414;52.074;5.126;2022-12-29T07:57:55;9.90;99.90
20512;DHT22;10414;52.074;5.126;2022-12-29T08:00:23;9.90;99.90
20512;DHT22;10414;52.074;5.126;2022-12-29T08:02:50;10.00;99.90
20512;DHT22;10414;52.074;5.126;2022-12-29T08:05:19;10.00;99.90
20512;DHT22;10414;52.074;5.126;2022-12-29T08:07:47;10.20;99.90
20512;DHT22;10414;52.074;5.126;2022-12-29T08:10:14;10.20;99.90
20512;DHT22;10414;52.074;5.126;2022-12-29T08:12:42;10.20;99.90
20512;DHT22;10414;52.074;5.126;2022-12-29T08:15:10;10.30;99.90
20512;DHT22;10414;52.074;5.126;2022-12-29T08:17:37;10.40;99.90
20512;DHT22;10414;52.074;5.126;2022-12-29T08:20:05;10.40;99.90
20512;DHT22;10414;52.074;5.126;2022-12-29T08:22:35;10.40;99.90
20512;DHT22;10414;52.074;5.126;2022-12-29T08:25:05;10.50;99.90
20512;DHT22;10414;52.074;5.126;2022-12-29T08:27:32;10.50;99.90
20512;DHT22;10414;52.074;5.126;2022-12-29T08:29:59;10.50;99.90
20512;DHT22;10414;52.074;5.126;2022-12-29T08:32:26;10.50;99.90
20512;DHT22;10414;52.074;5.126;2022-12-29T08:34:54;10.50;99.90
20512;DHT22;10414;52.074;5.126;2022-12-29T08:37:21;10.40;99.90
20512;DHT22;10414;52.074;5.126;2022-12-29T08:39:49;10.40;99.90
20512;DHT22;10414;52.074;5.126;2022-12-29T08:42:16;10.50;99.90
20512;DHT22;10414;52.074;5.126;2022-12-29T08:44:43;10.40;99.90
20512;DHT22;10414;52.074;5.126;2022-12-29T08:47:10;10.40;99.90
20512;DHT22;10414;52.074;5.126;2022-12-29T08:49:40;10.40;99.90
20512;DHT22;10414;52.074;5.126;2022-12-29T08:52:07;10.40;99.90
20512;DHT22;10414;52.074;5.126;2022-12-29T08:54:34;10.50;99.90
20512;DHT22;10414;52.074;5.126;2022-12-29T08:57:02;10.50;99.90
20512;DHT22;10414;52.074;5.126;2022-12-29T08:59:29;10.40;99.90
20512;DHT22;10414;52.074;5.126;2022-12-29T09:01:56;10.40;99.90
20512;DHT22;10414;52.074;5.126;2022-12-29T09:04:23;10.30;99.90
20512;DHT22;10414;52.074;5.126;2022-12-29T09:06:50;10.30;99.90
20512;DHT22;10414;52.074;5.126;2022-12-29T09:09:19;10.30;99.90
20512;DHT22;10414;52.074;5.126;2022-12-29T09:11:49;10.30;99.90
20512;DHT22;10414;52.074;5.126;2022-12-29T09:14:17;10.30;99.90
20512;DHT22;10414;52.074;5.126;2022-12-29T09:16:51;10.30;99.90
20512;DHT22;10414;52.074;5.126;2022-12-29T09:19:35;10.20;99.90
20512;DHT22;10414;52.074;5.126;2022-12-29T09:22:02;10.20;99.90
20512;DHT22;10414;52.074;5.126;2022-12-29T09:24:29;10.10;99.90
20512;DHT22;10414;52.074;5.126;2022-12-29T09:26:56;10.00;99.90
20512;DHT22;10414;52.074;5.126;2022-12-29T09:29:24;9.90;99.90
20512;DHT22;10414;52.074;5.126;2022-12-29T09:31:54;9.90;99.90
20512;DHT22;10414;52.074;5.126;2022-12-29T09:34:21;9.90;99.90
20512;DHT22;10414;52.074;5.126;2022-12-29T09:36:57;9.80;99.90
20512;DHT22;10414;52.074;5.126;2022-12-29T09:39:24;9.70;99.90
20512;DHT22;10414;52.074;5.126;2022-12-29T09:42:01;9.80;99.90
20512;DHT22;10414;52.074;5.126;2022-12-29T09:44:48;9.70;99.90
20512;DHT22;10414;52.074;5.126;2022-12-29T09:47:22;9.70;99.90
20512;DHT22;10414;52.074;5.126;2022-12-29T09:49:54;9.70;99.90
20512;DHT22;10414;52.074;5.126;2022-12-29T09:52:25;9.80;99.90
20512;DHT22;10414;52.074;5.126;2022-12-29T09:54:56;9.70;99.90
20512;DHT22;10414;52.074;5.126;2022-12-29T09:57:26;9.80;99.90
20512;DHT22;10414;52.074;5.126;2022-12-29T09:59:58;9.90;99.90
20512;DHT22;10414;52.074;5.126;2022-12-29T10:02:34;9.90;99.90
20512;DHT22;10414;52.074;5.126;2022-12-29T10:05:19;9.90;99.90
20512;DHT22;10414;52.074;5.126;2022-12-29T10:07:55;10.00;99.90
20512;DHT22;10414;52.074;5.126;2022-12-29T10:10:34;10.00;99.90
20512;DHT22;10414;52.074;5.126;2022-12-29T10:13:13;10.10;99.90
20512;DHT22;10414;52.074;5.126;2022-12-29T10:15:54;10.20;99.90
20512;DHT22;10414;52.074;5.126;2022-12-29T10:18:47;10.20;99.90
20512;DHT22;10414;52.074;5.126;2022-12-29T10:21:27;10.30;99.90
20512;DHT22;10414;52.074;5.126;2022-12-29T10:23:58;10.20;99.90
20512;DHT22;10414;52.074;5.126;2022-12-29T10:26:38;10.10;99.90
20512;DHT22;10414;52.074;5.126;2022-12-29T10:29:14;10.10;99.90
20512;DHT22;10414;52.074;5.126;2022-12-29T10:31:48;10.00;99.90
20512;DHT22;10414;52.074;5.126;2022-12-29T10:34:20;10.00;99.90
20512;DHT22;10414;52.074;5.126;2022-12-29T10:36:49;10.10;99.90
20512;DHT22;10414;52.074;5.126;2022-12-29T10:39:21;10.20;99.90
20512;DHT22;10414;52.074;5.126;2022-12-29T10:41:51;10.20;99.90
20512;DHT22;10414;52.074;5.126;2022-12-29T10:44:20;10.20;99.90
20512;DHT22;10414;52.074;5.126;2022-12-29T10:46:58;10.20;99.90
20512;DHT22;10414;52.074;5.126;2022-12-29T10:49:28;10.20;99.90
20512;DHT22;10414;52.074;5.126;2022-12-29T10:51:58;10.20;99.90
20512;DHT22;10414;52.074;5.126;2022-12-29T10:54:29;10.00;99.90
20512;DHT22;10414;52.074;5.126;2022-12-29T10:57:01;10.00;99.90
20512;DHT22;10414;52.074;5.126;2022-12-29T10:59:37;10.20;99.90
20512;DHT22;10414;52.074;5.126;2022-12-29T11:02:21;10.20;99.90
20512;DHT22;10414;52.074;5.126;2022-12-29T11:04:57;10.20;99.90
20512;DHT22;10414;52.074;5.126;2022-12-29T11:07:28;10.40;99.90
20512;DHT22;10414;52.074;5.126;2022-12-29T11:10:16;10.50;99.90
20512;DHT22;10414;52.074;5.126;2022-12-29T11:12:54;10.70;99.90
20512;DHT22;10414;52.074;5.126;2022-12-29T11:15:22;11.40;99.90
20512;DHT22;10414;52.074;5.126;2022-12-29T11:17:52;12.10;99.90
20512;DHT22;10414;52.074;5.126;2022-12-29T11:20:28;12.40;99.90
20512;DHT22;10414;52.074;5.126;2022-12-29T11:22:55;11.80;99.90
20512;DHT22;10414;52.074;5.126;2022-12-29T11:25:22;11.40;99.90
20512;DHT22;10414;52.074;5.126;2022-12-29T11:27:55;11.00;99.90
20512;DHT22;10414;52.074;5.126;2022-12-29T11:30:25;10.70;99.90
20512;DHT22;10414;52.074;5.126;2022-12-29T11:32:56;10.50;99.90
20512;DHT22;10414;52.074;5.126;2022-12-29T11:35:34;10.60;99.90
20512;DHT22;10414;52.074;5.126;2022-12-29T11:38:04;11.10;99.90
20512;DHT22;10414;52.074;5.126;2022-12-29T11:40:32;11.00;99.90
20512;DHT22;10414;52.074;5.126;2022-12-29T11:43:05;10.80;99.90
20512;DHT22;10414;52.074;5.126;2022-12-29T11:45:35;10.70;99.90
20512;DHT22;10414;52.074;5.126;2022-12-29T11:48:09;10.80;99.90
20512;DHT22;10414;52.074;5.126;2022-12-29T11:50:41;10.80;99.90
20512;DHT22;10414;52.074;5.126;2022-12-29T11:53:18;10.80;99.90
20512;DHT22;10414;52.074;5.126;2022-12-29T11:55:54;10.90;99.90
20512;DHT22;10414;52.074;5.126;2022-12-29T11:58:28;10.80;99.90
20512;DHT22;10414;52.074;5.126;2022-12-29T12:01:01;10.70;99.90
20512;DHT22;10414;52.074;5.126;2022-12-29T12:03:32;10.50;99.90
20512;DHT22;10414;52.074;5.126;2022-12-29T12:06:07;10.40;99.90
20512;DHT22;10414;52.074;5.126;2022-12-29T12:08:39;10.40;99.90
20512;DHT22;10414;52.074;5.126;2022-12-29T12:11:12;10.40;99.90
20512;DHT22;10414;52.074;5.126;2022-12-29T12:13:52;10.50;99.90
20512;DHT22;10414;52.074;5.126;2022-12-29T12:16:30;10.60;99.90
20512;DHT22;10414;52.074;5.126;2022-12-29T12:19:04;10.60;99.90
20512;DHT22;10414;52.074;5.126;2022-12-29T12:21:42;10.50;99.90
20512;DHT22;10414;52.074;5.126;2022-12-29T12:24:34;10.50;99.90
20512;DHT22;10414;52.074;5.126;2022-12-29T12:27:09;10.50;99.90
20512;DHT22;10414;52.074;5.126;2022-12-29T12:29:45;10.60;99.90
20512;DHT22;10414;52.074;5.126;2022-12-29T12:32:17;10.50;99.90
20512;DHT22;10414;52.074;5.126;2022-12-29T12:34:49;10.50;99.90
20512;DHT22;10414;52.074;5.126;2022-12-29T12:37:43;10.60;99.90
20512;DHT22;10414;52.074;5.126;2022-12-29T12:40:34;10.60;99.90
20512;DHT22;10414;52.074;5.126;2022-12-29T12:43:36;10.70;99.90
20512;DHT22;10414;52.074;5.126;2022-12-29T12:46:17;10.70;99.90
20512;DHT22;10414;52.074;5.126;2022-12-29T12:48:55;10.70;99.90
20512;DHT22;10414;52.074;5.126;2022-12-29T12:51:35;10.80;99.90
20512;DHT22;10414;52.074;5.126;2022-12-29T12:54:18;11.00;99.90
20512;DHT22;10414;52.074;5.126;2022-12-29T12:57:02;11.20;99.90
20512;DHT22;10414;52.074;5.126;2022-12-29T12:59:46;11.20;99.90
20512;DHT22;10414;52.074;5.126;2022-12-29T13:02:32;11.20;99.90
20512;DHT22;10414;52.074;5.126;2022-12-29T13:05:16;11.10;99.90
20512;DHT22;10414;52.074;5.126;2022-12-29T13:07:59;11.10;99.90
20512;DHT22;10414;52.074;5.126;2022-12-29T13:10:38;11.10;99.90
20512;DHT22;10414;52.074;5.126;2022-12-29T13:13:33;11.10;99.90
20512;DHT22;10414;52.074;5.126;2022-12-29T13:16:08;11.00;99.90
20512;DHT22;10414;52.074;5.126;2022-12-29T13:18:46;11.00;99.90
20512;DHT22;10414;52.074;5.126;2022-12-29T13:21:24;11.00;99.90
20512;DHT22;10414;52.074;5.126;2022-12-29T13:24:00;11.00;99.90
20512;DHT22;10414;52.074;5.126;2022-12-29T13:26:32;11.00;99.90
20512;DHT22;10414;52.074;5.126;2022-12-29T13:29:08;11.00;99.90
20512;DHT22;10414;52.074;5.126;2022-12-29T13:34:37;10.90;99.90
20512;DHT22;10414;52.074;5.126;2022-12-29T13:37:10;11.00;99.90
20512;DHT22;10414;52.074;5.126;2022-12-29T13:39:45;11.10;99.90
20512;DHT22;10414;52.074;5.126;2022-12-29T13:42:18;11.10;99.90
20512;DHT22;10414;52.074;5.126;2022-12-29T13:44:50;11.10;99.90
20512;DHT22;10414;52.074;5.126;2022-12-29T13:47:32;10.90;99.90
20512;DHT22;10414;52.074;5.126;2022-12-29T13:50:06;11.00;99.90
20512;DHT22;10414;52.074;5.126;2022-12-29T13:52:54;10.80;99.90
20512;DHT22;10414;52.074;5.126;2022-12-29T13:55:27;10.70;99.90
20512;DHT22;10414;52.074;5.126;2022-12-29T13:58:02;10.70;99.90
20512;DHT22;10414;52.074;5.126;2022-12-29T14:00:49;10.40;99.90
20512;DHT22;10414;52.074;5.126;2022-12-29T14:03:41;10.10;99.90
20512;DHT22;10414;52.074;5.126;2022-12-29T14:06:16;9.90;99.90
20512;DHT22;10414;52.074;5.126;2022-12-29T14:08:46;9.70;99.90
20512;DHT22;10414;52.074;5.126;2022-12-29T14:11:23;9.70;99.90
20512;DHT22;10414;52.074;5.126;2022-12-29T14:13:51;9.70;99.90
20512;DHT22;10414;52.074;5.126;2022-12-29T14:16:29;9.70;99.90
20512;DHT22;10414;52.074;5.126;2022-12-29T14:19:04;9.70;99.90
20512;DHT22;10414;52.074;5.126;2022-12-29T14:21:32;9.70;99.90
20512;DHT22;10414;52.074;5.126;2022-12-29T14:24:40;9.70;99.90
20512;DHT22;10414;52.074;5.126;2022-12-29T14:27:52;9.70;99.90
20512;DHT22;10414;52.074;5.126;2022-12-29T14:30:47;9.70;99.90
20512;DHT22;10414;52.074;5.126;2022-12-29T14:33:15;9.60;99.90
20512;DHT22;10414;52.074;5.126;2022-12-29T14:35:44;9.60;99.90
20512;DHT22;10414;52.074;5.126;2022-12-29T14:38:17;9.70;99.90
20512;DHT22;10414;52.074;5.126;2022-12-29T14:40:45;9.70;99.90
20512;DHT22;10414;52.074;5.126;2022-12-29T14:43:18;9.70;99.90
20512;DHT22;10414;52.074;5.126;2022-12-29T14:45:56;9.70;99.90
20512;DHT22;10414;52.074;5.126;2022-12-29T14:48:42;9.60;99.90
20512;DHT22;10414;52.074;5.126;2022-12-29T14:51:27;9.60;99.90
20512;DHT22;10414;52.074;5.126;2022-12-29T14:53:55;9.60;99.90
20512;DHT22;10414;52.074;5.126;2022-12-29T14:56:25;9.70;99.90
20512;DHT22;10414;52.074;5.126;2022-12-29T14:58:56;9.70;99.90
20512;DHT22;10414;52.074;5.126;2022-12-29T15:01:33;9.70;99.90
20512;DHT22;10414;52.074;5.126;2022-12-29T15:04:12;9.70;99.90
20512;DHT22;10414;52.074;5.126;2022-12-29T15:06:40;9.70;99.90
20512;DHT22;10414;52.074;5.126;2022-12-29T15:09:23;9.80;99.90
20512;DHT22;10414;52.074;5.126;2022-12-29T15:11:53;9.70;99.90
20512;DHT22;10414;52.074;5.126;2022-12-29T15:14:38;9.80;99.90
20512;DHT22;10414;52.074;5.126;2022-12-29T15:17:21;9.80;99.90
20512;DHT22;10414;52.074;5.126;2022-12-29T15:19:49;9.80;99.90
20512;DHT22;10414;52.074;5.126;2022-12-29T15:22:19;9.80;99.90
20512;DHT22;10414;52.074;5.126;2022-12-29T15:24:52;9.90;99.90
20512;DHT22;10414;52.074;5.126;2022-12-29T15:27:21;10.00;99.90
20512;DHT22;10414;52.074;5.126;2022-12-29T15:29:56;10.00;99.90
20512;DHT22;10414;52.074;5.126;2022-12-29T15:32:25;10.10;99.90
20512;DHT22;10414;52.074;5.126;2022-12-29T15:34:54;10.00;99.90
20512;DHT22;10414;52.074;5.126;2022-12-29T15:37:24;10.00;99.90
20512;DHT22;10414;52.074;5.126;2022-12-29T15:39:53;10.00;99.90
20512;DHT22;10414;52.074;5.126;2022-12-29T15:42:47;10.00;99.90
20512;DHT22;10414;52.074;5.126;2022-12-29T15:45:18;10.00;99.90
20512;DHT22;10414;52.074;5.126;2022-12-29T15:47:45;10.00;99.90
20512;DHT22;10414;52.074;5.126;2022-12-29T15:50:21;9.90;99.90
20512;DHT22;10414;52.074;5.126;2022-12-29T15:52:49;10.00;99.90
20512;DHT22;10414;52.074;5.126;2022-12-29T15:55:20;9.90;99.90
20512;DHT22;10414;52.074;5.126;2022-12-29T15:57:56;9.90;99.90
20512;DHT22;10414;52.074;5.126;2022-12-29T16:00:26;10.00;99.90
20512;DHT22;10414;52.074;5.126;2022-12-29T16:02:53;9.80;99.90
20512;DHT22;10414;52.074;5.126;2022-12-29T16:05:20;9.90;99.90
20512;DHT22;10414;52.074;5.126;2022-12-29T16:07:53;9.80;99.90
20512;DHT22;10414;52.074;5.126;2022-12-29T16:10:30;9.80;99.90
20512;DHT22;10414;52.074;5.126;2022-12-29T16:13:04;9.90;99.90